This is the latest recevied weather packets stored in our database for station/object KF4ERV-4. If no packets are shown the sender has not sent any weather packets the latest 10 day(s).
| Time | Temp. | Humidity | Pressure | Rain* | Wind** | Luminosity | Snow |
|---|---|---|---|---|---|---|---|
| 1778128795 | 11.11° C | 47% | 1016 hPa | 0 mm | - | - | - |
| 1778128200 | 11.11° C | 49% | 1016 hPa | 0 mm | - | - | - |
| 1778127893 | 11.11° C | 50% | 1016 hPa | 0 mm | - | - | - |
| 1778127827 | 11.11° C | 53% | 1016 hPa | 0 mm | - | - | - |
| 1778127647 | 11.11° C | 51% | 1016 hPa | 0 mm | - | - | - |
| 1778127299 | 11.11° C | 52% | 1016 hPa | 0 mm | - | - | - |
| 1778127066 | 11.11° C | 53% | 1016 hPa | 0 mm | - | - | - |
| 1778127002 | 11.11° C | 53% | 1016 hPa | 0 mm | - | - | - |
| 1778126775 | 11.11° C | 53% | 1016 hPa | 0 mm | - | - | - |
| 1778126693 | 11.11° C | 53% | 1016 hPa | 0 mm | - | - | - |
| 1778126554 | 11.11° C | 51% | 1016 hPa | 0 mm | - | - | - |
| 1778126491 | 11.11° C | 52% | 1016 hPa | 0 mm | - | - | - |
| 1778126397 | 11.11° C | 52% | 1016 hPa | 0 mm | - | - | - |
| 1778126330 | 11.11° C | 51% | 1016 hPa | 0 mm | - | - | - |
| 1778125876 | 11.11° C | 51% | 1016 hPa | 0 mm | - | - | - |
| 1778125733 | 11.11° C | 48% | 1016.4 hPa | 0 mm | - | - | - |
| 1778125615 | 11.11° C | 48% | 1016.4 hPa | 0 mm | - | - | - |
| 1778125530 | 11.11° C | 48% | 1016.4 hPa | 0 mm | - | - | - |
| 1778125496 | 11.11° C | 48% | 1016.4 hPa | 0 mm | - | - | - |
| 1778125198 | 11.11° C | 47% | 1016.7 hPa | 0 mm | - | - | - |
| 1778125099 | 11.11° C | 48% | 1016 hPa | 0 mm | - | - | - |
| 1778125036 | 11.11° C | 45% | 1016.7 hPa | 0 mm | - | - | - |
| 1778124900 | 11.11° C | 45% | 1016.7 hPa | 0 mm | - | - | - |
| 1778124454 | 11.11° C | 41% | 1016.9 hPa | 0 mm | - | - | - |
| 1778124296 | 11.11° C | 41% | 1016.9 hPa | 0 mm | - | - | - |
* Rain latest hour (hover to see other rain measurements)
** Current wind speed in m/s (hover to see current wind gust speed)